TAP1925 LPPR-LPPT
Flight info
| Callsign | TAP1925 |
|---|---|
| Flight time | 0h 40m |
| Altitude | 23000 |
| Route | MANIK DCT ABRIL DCT XAMAX |
| Aircraft | A320/M-SDE3FGHIRWY/LB1 |
Departure
| Time | 2026-05-04 14:22 |
|---|---|
| Airport | Francisco de Sá Carneiro Airport (LPPR) |
Arrival
| Time | 2026-05-04 15:02 |
|---|---|
| Airport | Lisbon Humberto Delgado Airport (LPPT) |
| Time | Latitude | Longitude | Altitude | Speed | Heading |
|---|---|---|---|---|---|
| 2026-05-04 14:00 | 41.23683 | -8.67251 | 237 ft | 0 kts | 83° |
| 2026-05-04 14:14 | 41.23683 | -8.67260 | 236 ft | 3 kts | 84° |
| 2026-05-04 14:14 | 41.23681 | -8.67286 | 240 ft | 3 kts | 89° |
| 2026-05-04 14:15 | 41.23687 | -8.67338 | 236 ft | 3 kts | 124° |
| 2026-05-04 14:15 | 41.23698 | -8.67353 | 235 ft | 0 kts | 160° |
| 2026-05-04 14:17 | 41.23636 | -8.67415 | 232 ft | 14 kts | 249° |
| 2026-05-04 14:18 | 41.23629 | -8.67502 | 230 ft | 9 kts | 264° |
| 2026-05-04 14:18 | 41.23605 | -8.67662 | 229 ft | 0 kts | 259° |
| 2026-05-04 14:19 | 41.23604 | -8.67669 | 229 ft | 3 kts | 259° |
| 2026-05-04 14:20 | 41.23597 | -8.67717 | 229 ft | 8 kts | 259° |
| 2026-05-04 14:20 | 41.23594 | -8.67796 | 229 ft | 9 kts | 300° |
| 2026-05-04 14:20 | 41.23636 | -8.67819 | 227 ft | 0 kts | 348° |
| 2026-05-04 14:21 | 41.23637 | -8.67819 | 227 ft | 1 kts | 348° |
| 2026-05-04 14:21 | 41.23741 | -8.67846 | 222 ft | 46 kts | 349° |
| 2026-05-04 14:21 | 41.24294 | -8.67990 | 214 ft | 112 kts | 349° |
| 2026-05-04 14:21 | 41.25247 | -8.68243 | 222 ft | 159 kts | 346° |
| 2026-05-04 14:22 | 41.26306 | -8.68515 | 943 ft | 156 kts | 345° |
| 2026-05-04 14:22 | 41.27376 | -8.68793 | 1715 ft | 161 kts | 346° |
| 2026-05-04 14:22 | 41.28546 | -8.69107 | 2168 ft | 183 kts | 345° |
| 2026-05-04 14:22 | 41.29881 | -8.69466 | 2669 ft | 209 kts | 346° |
| 2026-05-04 14:23 | 41.33040 | -8.70299 | 3748 ft | 251 kts | 346° |
| 2026-05-04 14:23 | 41.34774 | -8.70756 | 4673 ft | 256 kts | 346° |
| 2026-05-04 14:23 | 41.36533 | -8.71218 | 5614 ft | 260 kts | 346° |
| 2026-05-04 14:24 | 41.38319 | -8.71700 | 6543 ft | 263 kts | 342° |
| 2026-05-04 14:24 | 41.39963 | -8.72737 | 7374 ft | 264 kts | 320° |
| 2026-05-04 14:24 | 41.41155 | -8.74582 | 8203 ft | 266 kts | 296° |
| 2026-05-04 14:24 | 41.41642 | -8.76950 | 9049 ft | 269 kts | 271° |
| 2026-05-04 14:25 | 41.41296 | -8.79403 | 9922 ft | 275 kts | 246° |
| 2026-05-04 14:25 | 41.38265 | -8.82714 | 10746 ft | 321 kts | 193° |
| 2026-05-04 14:25 | 41.35949 | -8.82639 | 10977 ft | 347 kts | 173° |
| 2026-05-04 14:26 | 41.33540 | -8.81998 | 11517 ft | 357 kts | 169° |
| 2026-05-04 14:26 | 41.31113 | -8.81190 | 12197 ft | 362 kts | 168° |
| 2026-05-04 14:26 | 41.28661 | -8.80319 | 12891 ft | 367 kts | 168° |
| 2026-05-04 14:26 | 41.26182 | -8.79438 | 13593 ft | 371 kts | 168° |
| 2026-05-04 14:27 | 41.23665 | -8.78575 | 14237 ft | 375 kts | 169° |
| 2026-05-04 14:27 | 41.21122 | -8.77740 | 14860 ft | 378 kts | 170° |
| 2026-05-04 14:27 | 41.18550 | -8.76923 | 15474 ft | 382 kts | 171° |
| 2026-05-04 14:27 | 41.15956 | -8.76115 | 16095 ft | 385 kts | 171° |
| 2026-05-04 14:28 | 41.13340 | -8.75306 | 16696 ft | 388 kts | 171° |
| 2026-05-04 14:28 | 41.10698 | -8.74491 | 17287 ft | 392 kts | 171° |
| 2026-05-04 14:28 | 41.08027 | -8.73668 | 17873 ft | 395 kts | 171° |
| 2026-05-04 14:28 | 41.05340 | -8.72835 | 18450 ft | 399 kts | 171° |
| 2026-05-04 14:29 | 40.99901 | -8.71136 | 19458 ft | 404 kts | 171° |
| 2026-05-04 14:29 | 40.94388 | -8.69419 | 20457 ft | 410 kts | 172° |
| 2026-05-04 14:30 | 40.91600 | -8.68558 | 20957 ft | 413 kts | 172° |
| 2026-05-04 14:30 | 40.88794 | -8.67690 | 21407 ft | 416 kts | 172° |
| 2026-05-04 14:30 | 40.83090 | -8.66390 | 22333 ft | 417 kts | 178° |
| 2026-05-04 14:31 | 40.80202 | -8.65906 | 22791 ft | 420 kts | 179° |
| 2026-05-04 14:31 | 40.74346 | -8.65002 | 23105 ft | 433 kts | 179° |
| 2026-05-04 14:32 | 40.68241 | -8.64065 | 23098 ft | 447 kts | 179° |
| 2026-05-04 14:32 | 40.65149 | -8.63568 | 23092 ft | 448 kts | 178° |
| 2026-05-04 14:32 | 40.62052 | -8.63063 | 23091 ft | 448 kts | 178° |
| 2026-05-04 14:32 | 40.58958 | -8.62556 | 23088 ft | 449 kts | 178° |
| 2026-05-04 14:33 | 40.55861 | -8.62049 | 23085 ft | 448 kts | 178° |
| 2026-05-04 14:33 | 40.52763 | -8.61544 | 23085 ft | 448 kts | 178° |
| 2026-05-04 14:33 | 40.49669 | -8.61042 | 23085 ft | 448 kts | 178° |
| 2026-05-04 14:33 | 40.46570 | -8.60542 | 23085 ft | 449 kts | 178° |
| 2026-05-04 14:34 | 40.43468 | -8.60044 | 23080 ft | 449 kts | 178° |
| 2026-05-04 14:34 | 40.40369 | -8.59548 | 23080 ft | 449 kts | 178° |
| 2026-05-04 14:34 | 40.37269 | -8.59053 | 23079 ft | 449 kts | 178° |
| 2026-05-04 14:34 | 40.34165 | -8.58559 | 23072 ft | 449 kts | 178° |
| 2026-05-04 14:35 | 40.31067 | -8.58066 | 23073 ft | 449 kts | 178° |
| 2026-05-04 14:35 | 40.27967 | -8.57570 | 23077 ft | 449 kts | 178° |
| 2026-05-04 14:35 | 40.24869 | -8.57074 | 23070 ft | 449 kts | 178° |
| 2026-05-04 14:35 | 40.21773 | -8.56577 | 23064 ft | 448 kts | 178° |
| 2026-05-04 14:36 | 40.19721 | -8.56249 | 23069 ft | 448 kts | 178° |
| 2026-05-04 14:36 | 40.16629 | -8.55756 | 23058 ft | 448 kts | 178° |
| 2026-05-04 14:36 | 40.13550 | -8.55341 | 23063 ft | 435 kts | 185° |
| 2026-05-04 14:36 | 40.10660 | -8.55811 | 23081 ft | 410 kts | 202° |
| 2026-05-04 14:37 | 40.08041 | -8.57159 | 23082 ft | 402 kts | 209° |
| 2026-05-04 14:37 | 40.05484 | -8.58627 | 23087 ft | 401 kts | 209° |
| 2026-05-04 14:37 | 40.02932 | -8.60100 | 23087 ft | 401 kts | 209° |
| 2026-05-04 14:37 | 40.00382 | -8.61573 | 23091 ft | 401 kts | 209° |
| 2026-05-04 14:38 | 39.97829 | -8.63046 | 23091 ft | 401 kts | 209° |
| 2026-05-04 14:38 | 39.95278 | -8.64518 | 23093 ft | 401 kts | 209° |
| 2026-05-04 14:38 | 39.92721 | -8.65992 | 23100 ft | 402 kts | 209° |
| 2026-05-04 14:38 | 39.90168 | -8.67462 | 23107 ft | 402 kts | 209° |
| 2026-05-04 14:39 | 39.87736 | -8.69184 | 23096 ft | 395 kts | 218° |
| 2026-05-04 14:39 | 39.85456 | -8.71178 | 23097 ft | 395 kts | 219° |
| 2026-05-04 14:39 | 39.83184 | -8.73188 | 23096 ft | 395 kts | 219° |
| 2026-05-04 14:40 | 39.78642 | -8.77210 | 23097 ft | 395 kts | 219° |
| 2026-05-04 14:40 | 39.76369 | -8.79220 | 23094 ft | 395 kts | 219° |
| 2026-05-04 14:40 | 39.74066 | -8.81255 | 23095 ft | 395 kts | 219° |
| 2026-05-04 14:40 | 39.71824 | -8.83235 | 23091 ft | 395 kts | 219° |
| 2026-05-04 14:41 | 39.69551 | -8.85238 | 23092 ft | 395 kts | 219° |
| 2026-05-04 14:41 | 39.67266 | -8.87252 | 22374 ft | 401 kts | 219° |
| 2026-05-04 14:41 | 39.62579 | -8.91446 | 20793 ft | 413 kts | 219° |
| 2026-05-04 14:42 | 39.57875 | -8.95689 | 19739 ft | 410 kts | 219° |
| 2026-05-04 14:42 | 39.55542 | -8.97800 | 19276 ft | 408 kts | 219° |
| 2026-05-04 14:42 | 39.53221 | -8.99909 | 18814 ft | 407 kts | 219° |
| 2026-05-04 14:43 | 39.50910 | -9.02010 | 18365 ft | 404 kts | 219° |
| 2026-05-04 14:43 | 39.48618 | -9.04100 | 17852 ft | 402 kts | 219° |
| 2026-05-04 14:43 | 39.46340 | -9.06182 | 17344 ft | 400 kts | 219° |
| 2026-05-04 14:43 | 39.44074 | -9.08253 | 16847 ft | 398 kts | 219° |
| 2026-05-04 14:44 | 39.41817 | -9.10316 | 16358 ft | 396 kts | 219° |
| 2026-05-04 14:44 | 39.39574 | -9.12369 | 15885 ft | 394 kts | 219° |
| 2026-05-04 14:44 | 39.37340 | -9.14414 | 15404 ft | 393 kts | 219° |
| 2026-05-04 14:44 | 39.35116 | -9.16449 | 14941 ft | 391 kts | 219° |
| 2026-05-04 14:45 | 39.32902 | -9.18477 | 14469 ft | 389 kts | 219° |
| 2026-05-04 14:45 | 39.30698 | -9.20495 | 13991 ft | 388 kts | 219° |
| 2026-05-04 14:45 | 39.28501 | -9.22507 | 13471 ft | 386 kts | 219° |
| 2026-05-04 14:45 | 39.26321 | -9.24515 | 12935 ft | 384 kts | 219° |
| 2026-05-04 14:46 | 39.24159 | -9.26517 | 12417 ft | 381 kts | 219° |
| 2026-05-04 14:46 | 39.22020 | -9.28515 | 11894 ft | 379 kts | 219° |
| 2026-05-04 14:46 | 39.19896 | -9.30508 | 11402 ft | 376 kts | 218° |
| 2026-05-04 14:46 | 39.17631 | -9.32204 | 10908 ft | 377 kts | 209° |
| 2026-05-04 14:47 | 39.15293 | -9.33713 | 10433 ft | 374 kts | 209° |
| 2026-05-04 14:47 | 39.13011 | -9.35173 | 10285 ft | 358 kts | 209° |
| 2026-05-04 14:47 | 39.10827 | -9.36561 | 10164 ft | 343 kts | 209° |
| 2026-05-04 14:47 | 39.08733 | -9.37888 | 10042 ft | 329 kts | 209° |
| 2026-05-04 14:48 | 39.06714 | -9.39164 | 9909 ft | 317 kts | 208° |
| 2026-05-04 14:48 | 39.04793 | -9.40377 | 9755 ft | 297 kts | 209° |
| 2026-05-04 14:48 | 39.02971 | -9.41513 | 9317 ft | 288 kts | 209° |
| 2026-05-04 14:48 | 39.01173 | -9.42633 | 8961 ft | 286 kts | 209° |
| 2026-05-04 14:49 | 38.99393 | -9.43747 | 8602 ft | 284 kts | 209° |
| 2026-05-04 14:49 | 38.97624 | -9.44852 | 8221 ft | 282 kts | 209° |
| 2026-05-04 14:49 | 38.95865 | -9.45949 | 8108 ft | 281 kts | 209° |
| 2026-05-04 14:49 | 38.94100 | -9.47051 | 8111 ft | 282 kts | 208° |
| 2026-05-04 14:50 | 38.92333 | -9.48155 | 8113 ft | 283 kts | 209° |
| 2026-05-04 14:50 | 38.90564 | -9.49264 | 8114 ft | 283 kts | 209° |
| 2026-05-04 14:50 | 38.88797 | -9.50371 | 8106 ft | 283 kts | 209° |
| 2026-05-04 14:50 | 38.87030 | -9.51483 | 8107 ft | 283 kts | 209° |
| 2026-05-04 14:51 | 38.85263 | -9.52595 | 8114 ft | 283 kts | 209° |
| 2026-05-04 14:51 | 38.83494 | -9.53698 | 8111 ft | 283 kts | 206° |
| 2026-05-04 14:51 | 38.81574 | -9.54328 | 8108 ft | 287 kts | 191° |
| 2026-05-04 14:51 | 38.79588 | -9.54650 | 8108 ft | 288 kts | 189° |
| 2026-05-04 14:52 | 38.77596 | -9.54940 | 8108 ft | 288 kts | 189° |
| 2026-05-04 14:52 | 38.75606 | -9.55227 | 8108 ft | 288 kts | 189° |
| 2026-05-04 14:52 | 38.73612 | -9.55514 | 8108 ft | 288 kts | 189° |
| 2026-05-04 14:52 | 38.71625 | -9.55802 | 7900 ft | 286 kts | 189° |
| 2026-05-04 14:53 | 38.69654 | -9.56064 | 7583 ft | 283 kts | 184° |
| 2026-05-04 14:53 | 38.67744 | -9.55708 | 7421 ft | 276 kts | 160° |
| 2026-05-04 14:53 | 38.66135 | -9.54483 | 7295 ft | 265 kts | 137° |
| 2026-05-04 14:53 | 38.65035 | -9.52662 | 7090 ft | 257 kts | 115° |
| 2026-05-04 14:54 | 38.64489 | -9.50516 | 6788 ft | 253 kts | 102° |
| 2026-05-04 14:54 | 38.64070 | -9.48330 | 6439 ft | 253 kts | 102° |
| 2026-05-04 14:54 | 38.63650 | -9.46155 | 6107 ft | 251 kts | 102° |
| 2026-05-04 14:54 | 38.63229 | -9.44003 | 5837 ft | 246 kts | 101° |
| 2026-05-04 14:55 | 38.62819 | -9.41919 | 5722 ft | 238 kts | 101° |
| 2026-05-04 14:55 | 38.62426 | -9.39915 | 5463 ft | 229 kts | 102° |
| 2026-05-04 14:55 | 38.62042 | -9.37951 | 5098 ft | 226 kts | 101° |
| 2026-05-04 14:55 | 38.61666 | -9.36037 | 4902 ft | 216 kts | 101° |
| 2026-05-04 14:56 | 38.61307 | -9.34225 | 4703 ft | 207 kts | 101° |
| 2026-05-04 14:56 | 38.60957 | -9.32456 | 4409 ft | 204 kts | 101° |
| 2026-05-04 14:56 | 38.60610 | -9.30703 | 4087 ft | 203 kts | 101° |
| 2026-05-04 14:56 | 38.60264 | -9.28956 | 3998 ft | 203 kts | 99° |
| 2026-05-04 14:57 | 38.59951 | -9.27205 | 3970 ft | 201 kts | 91° |
| 2026-05-04 14:57 | 38.60024 | -9.25468 | 3885 ft | 191 kts | 71° |
| 2026-05-04 14:57 | 38.60513 | -9.23954 | 3770 ft | 180 kts | 51° |
| 2026-05-04 14:57 | 38.61311 | -9.22785 | 3605 ft | 171 kts | 33° |
| 2026-05-04 14:58 | 38.62313 | -9.22031 | 3424 ft | 165 kts | 16° |
| 2026-05-04 14:58 | 38.63389 | -9.21461 | 3209 ft | 171 kts | 18° |
| 2026-05-04 14:58 | 38.64487 | -9.20876 | 3000 ft | 170 kts | 18° |
| 2026-05-04 14:58 | 38.65570 | -9.20298 | 2757 ft | 166 kts | 16° |
| 2026-05-04 14:59 | 38.66606 | -9.19745 | 2554 ft | 159 kts | 17° |
| 2026-05-04 14:59 | 38.67631 | -9.19200 | 2308 ft | 159 kts | 17° |
| 2026-05-04 14:59 | 38.69627 | -9.18136 | 1894 ft | 157 kts | 16° |
| 2026-05-04 15:00 | 38.70642 | -9.17595 | 1676 ft | 158 kts | 17° |
| 2026-05-04 15:00 | 38.71632 | -9.17065 | 1461 ft | 150 kts | 16° |
| 2026-05-04 15:00 | 38.72580 | -9.16559 | 1241 ft | 145 kts | 14° |
| 2026-05-04 15:01 | 38.74387 | -9.15594 | 869 ft | 136 kts | 16° |
| 2026-05-04 15:01 | 38.75247 | -9.15135 | 670 ft | 132 kts | 15° |
| 2026-05-04 15:01 | 38.76083 | -9.14688 | 490 ft | 129 kts | 15° |
| 2026-05-04 15:01 | 38.76910 | -9.14238 | 352 ft | 129 kts | 15° |
| 2026-05-04 15:02 | 38.77609 | -9.13871 | 351 ft | 85 kts | 22° |
| 2026-05-04 15:02 | 38.77996 | -9.13664 | 350 ft | 36 kts | 23° |
| 2026-05-04 15:02 | 38.78144 | -9.13584 | 356 ft | 21 kts | 22° |
| 2026-05-04 15:02 | 38.78272 | -9.13482 | 352 ft | 23 kts | 39° |
| 2026-05-04 15:03 | 38.78362 | -9.13363 | 353 ft | 0 kts | 53° |
| 2026-05-04 15:03 | 38.78362 | -9.13362 | 353 ft | 0 kts | 53° |
| 2026-05-04 15:03 | 38.78373 | -9.13339 | 353 ft | 4 kts | 64° |
| 2026-05-04 15:03 | 38.78377 | -9.13309 | 350 ft | 3 kts | 89° |
| 2026-05-04 15:04 | 38.78359 | -9.13270 | 352 ft | 8 kts | 139° |
| 2026-05-04 15:04 | 38.78298 | -9.13273 | 347 ft | 9 kts | 199° |
| 2026-05-04 15:04 | 38.78244 | -9.13296 | 351 ft | 8 kts | 199° |
| 2026-05-04 15:04 | 38.78180 | -9.13327 | 350 ft | 12 kts | 201° |
| 2026-05-04 15:05 | 38.78083 | -9.13378 | 355 ft | 18 kts | 199° |
| 2026-05-04 15:05 | 38.77962 | -9.13399 | 351 ft | 17 kts | 173° |
| 2026-05-04 15:05 | 38.77851 | -9.13371 | 347 ft | 16 kts | 168° |
| 2026-05-04 15:05 | 38.77748 | -9.13343 | 350 ft | 16 kts | 168° |
| 2026-05-04 15:06 | 38.77627 | -9.13319 | 351 ft | 20 kts | 178° |
| 2026-05-04 15:06 | 38.77483 | -9.13294 | 355 ft | 21 kts | 168° |
| 2026-05-04 15:06 | 38.77357 | -9.13263 | 352 ft | 16 kts | 171° |
| 2026-05-04 15:07 | 38.77296 | -9.13219 | 353 ft | 2 kts | 90° |
| 2026-05-04 15:07 | 38.77296 | -9.13204 | 347 ft | 2 kts | 91° |
| 2026-05-04 15:07 | 38.77298 | -9.13189 | 352 ft | 1 kts | 77° |
| 2026-05-04 15:07 | 38.77299 | -9.13183 | 347 ft | 0 kts | 77° |
| 2026-05-04 15:08 | 38.77300 | -9.13178 | 354 ft | 0 kts | 77° |